sensor_id;sensor_type;location;lat;lon;timestamp;temperature;humidity
7325;DHT22;3703;48.016;7.802;2023-01-24T00:09:03;4.30;99.90
7325;DHT22;3703;48.016;7.802;2023-01-24T00:14:39;4.10;99.90
7325;DHT22;3703;48.016;7.802;2023-01-24T00:20:15;4.30;99.90
7325;DHT22;3703;48.016;7.802;2023-01-24T00:23:03;4.40;99.90
7325;DHT22;3703;48.016;7.802;2023-01-24T00:25:50;4.50;99.90
7325;DHT22;3703;48.016;7.802;2023-01-24T00:31:27;4.50;99.90
7325;DHT22;3703;48.016;7.802;2023-01-24T00:34:15;4.50;99.90
7325;DHT22;3703;48.016;7.802;2023-01-24T00:39:50;4.40;99.90
7325;DHT22;3703;48.016;7.802;2023-01-24T00:42:38;4.30;99.90
7325;DHT22;3703;48.016;7.802;2023-01-24T00:48:15;4.30;99.90
7325;DHT22;3703;48.016;7.802;2023-01-24T00:51:03;4.00;99.90
7325;DHT22;3703;48.016;7.802;2023-01-24T00:53:50;4.60;99.90
7325;DHT22;3703;48.016;7.802;2023-01-24T00:56:38;4.50;99.90
7325;DHT22;3703;48.016;7.802;2023-01-24T00:59:25;6.20;99.90
7325;DHT22;3703;48.016;7.802;2023-01-24T01:02:13;4.60;99.90
7325;DHT22;3703;48.016;7.802;2023-01-24T01:05:02;4.80;99.90
7325;DHT22;3703;48.016;7.802;2023-01-24T01:10:38;4.70;99.90
7325;DHT22;3703;48.016;7.802;2023-01-24T01:13:26;4.70;99.90
7325;DHT22;3703;48.016;7.802;2023-01-24T01:16:16;4.60;99.90
7325;DHT22;3703;48.016;7.802;2023-01-24T01:19:05;4.60;99.90
7325;DHT22;3703;48.016;7.802;2023-01-24T01:21:54;4.80;99.90
7325;DHT22;3703;48.016;7.802;2023-01-24T01:24:41;4.90;99.90
7325;DHT22;3703;48.016;7.802;2023-01-24T01:30:17;5.00;99.90
7325;DHT22;3703;48.016;7.802;2023-01-24T01:33:05;4.90;99.90
7325;DHT22;3703;48.016;7.802;2023-01-24T01:35:53;4.90;99.90
7325;DHT22;3703;48.016;7.802;2023-01-24T01:38:42;5.00;99.90
7325;DHT22;3703;48.016;7.802;2023-01-24T01:41:29;5.30;99.90
7325;DHT22;3703;48.016;7.802;2023-01-24T01:44:18;5.10;99.90
7325;DHT22;3703;48.016;7.802;2023-01-24T01:47:29;5.10;99.90
7325;DHT22;3703;48.016;7.802;2023-01-24T01:50:23;4.90;99.90
7325;DHT22;3703;48.016;7.802;2023-01-24T01:53:15;4.90;99.90
7325;DHT22;3703;48.016;7.802;2023-01-24T01:56:06;4.90;99.90
7325;DHT22;3703;48.016;7.802;2023-01-24T01:59:01;4.90;99.90
7325;DHT22;3703;48.016;7.802;2023-01-24T02:01:53;5.20;99.90
7325;DHT22;3703;48.016;7.802;2023-01-24T02:04:47;4.80;99.90
7325;DHT22;3703;48.016;7.802;2023-01-24T02:07:41;5.50;99.90
7325;DHT22;3703;48.016;7.802;2023-01-24T02:10:30;4.80;99.90
7325;DHT22;3703;48.016;7.802;2023-01-24T02:13:40;4.90;99.90
7325;DHT22;3703;48.016;7.802;2023-01-24T02:16:29;5.00;99.90
7325;DHT22;3703;48.016;7.802;2023-01-24T02:19:35;4.80;99.90
7325;DHT22;3703;48.016;7.802;2023-01-24T02:22:37;4.80;99.90
7325;DHT22;3703;48.016;7.802;2023-01-24T02:25:32;4.90;99.90
7325;DHT22;3703;48.016;7.802;2023-01-24T02:28:24;5.30;99.90
7325;DHT22;3703;48.016;7.802;2023-01-24T02:36:50;4.70;99.90
7325;DHT22;3703;48.016;7.802;2023-01-24T02:39:47;4.60;99.90
7325;DHT22;3703;48.016;7.802;2023-01-24T02:42:38;4.80;99.90
7325;DHT22;3703;48.016;7.802;2023-01-24T02:45:29;4.70;99.90
7325;DHT22;3703;48.016;7.802;2023-01-24T02:51:05;4.50;99.90
7325;DHT22;3703;48.016;7.802;2023-01-24T03:00:04;4.50;99.90
7325;DHT22;3703;48.016;7.802;2023-01-24T03:02:54;5.10;99.90
7325;DHT22;3703;48.016;7.802;2023-01-24T03:08:42;4.50;99.90
7325;DHT22;3703;48.016;7.802;2023-01-24T03:20:30;4.80;99.90
7325;DHT22;3703;48.016;7.802;2023-01-24T03:23:35;4.80;99.90
7325;DHT22;3703;48.016;7.802;2023-01-24T03:35:57;4.90;99.90
7325;DHT22;3703;48.016;7.802;2023-01-24T03:53:25;4.80;99.90
7325;DHT22;3703;48.016;7.802;2023-01-24T03:56:14;5.00;99.90
7325;DHT22;3703;48.016;7.802;2023-01-24T03:59:01;5.00;99.90
7325;DHT22;3703;48.016;7.802;2023-01-24T04:04:37;4.90;99.90
7325;DHT22;3703;48.016;7.802;2023-01-24T04:10:31;4.70;99.90
7325;DHT22;3703;48.016;7.802;2023-01-24T04:16:07;4.50;99.90
7325;DHT22;3703;48.016;7.802;2023-01-24T04:27:21;4.40;99.90
7325;DHT22;3703;48.016;7.802;2023-01-24T04:30:11;4.40;99.90
7325;DHT22;3703;48.016;7.802;2023-01-24T04:41:23;4.50;99.90
7325;DHT22;3703;48.016;7.802;2023-01-24T04:44:12;4.40;99.90
7325;DHT22;3703;48.016;7.802;2023-01-24T05:01:01;4.20;99.90
7325;DHT22;3703;48.016;7.802;2023-01-24T05:17:49;5.80;99.90
7325;DHT22;3703;48.016;7.802;2023-01-24T05:34:37;4.30;99.90
7325;DHT22;3703;48.016;7.802;2023-01-24T05:43:00;4.60;99.90
7325;DHT22;3703;48.016;7.802;2023-01-24T05:51:25;4.50;99.90
7325;DHT22;3703;48.016;7.802;2023-01-24T06:08:14;4.50;99.90
7325;DHT22;3703;48.016;7.802;2023-01-24T06:11:04;4.70;99.90
7325;DHT22;3703;48.016;7.802;2023-01-24T06:13:53;4.60;99.90
7325;DHT22;3703;48.016;7.802;2023-01-24T06:16:42;4.70;99.90
7325;DHT22;3703;48.016;7.802;2023-01-24T06:22:25;4.60;99.90
7325;DHT22;3703;48.016;7.802;2023-01-24T06:25:20;4.70;99.90
7325;DHT22;3703;48.016;7.802;2023-01-24T06:31:03;4.80;99.90
7325;DHT22;3703;48.016;7.802;2023-01-24T06:34:08;4.50;99.90
7325;DHT22;3703;48.016;7.802;2023-01-24T06:37:13;4.80;99.90
7325;DHT22;3703;48.016;7.802;2023-01-24T06:40:07;4.80;99.90
7325;DHT22;3703;48.016;7.802;2023-01-24T06:42:58;4.70;99.90
7325;DHT22;3703;48.016;7.802;2023-01-24T06:59:46;4.70;99.90
7325;DHT22;3703;48.016;7.802;2023-01-24T07:16:34;4.80;99.90
7325;DHT22;3703;48.016;7.802;2023-01-24T07:19:22;4.90;99.90
7325;DHT22;3703;48.016;7.802;2023-01-24T07:25:00;5.00;99.90
7325;DHT22;3703;48.016;7.802;2023-01-24T07:27:49;4.90;99.90
7325;DHT22;3703;48.016;7.802;2023-01-24T07:33:26;4.90;99.90
7325;DHT22;3703;48.016;7.802;2023-01-24T07:36:15;5.00;99.90
7325;DHT22;3703;48.016;7.802;2023-01-24T07:47:27;5.10;99.90
7325;DHT22;3703;48.016;7.802;2023-01-24T07:50:17;5.20;99.90
7325;DHT22;3703;48.016;7.802;2023-01-24T08:07:05;5.40;99.90
7325;DHT22;3703;48.016;7.802;2023-01-24T08:10:06;5.30;99.90
7325;DHT22;3703;48.016;7.802;2023-01-24T08:24:08;5.60;99.90
7325;DHT22;3703;48.016;7.802;2023-01-24T08:29:43;5.50;99.90
7325;DHT22;3703;48.016;7.802;2023-01-24T08:38:07;5.60;99.90
7325;DHT22;3703;48.016;7.802;2023-01-24T08:40:56;5.60;99.90
7325;DHT22;3703;48.016;7.802;2023-01-24T08:43:43;5.30;99.90
7325;DHT22;3703;48.016;7.802;2023-01-24T08:46:31;5.70;99.90
7325;DHT22;3703;48.016;7.802;2023-01-24T08:52:06;6.00;99.90
7325;DHT22;3703;48.016;7.802;2023-01-24T08:54:54;6.10;99.90
7325;DHT22;3703;48.016;7.802;2023-01-24T08:57:43;6.80;99.90
7325;DHT22;3703;48.016;7.802;2023-01-24T09:00:31;6.40;99.90
7325;DHT22;3703;48.016;7.802;2023-01-24T09:03:19;5.90;99.90
7325;DHT22;3703;48.016;7.802;2023-01-24T09:06:07;6.00;99.90
7325;DHT22;3703;48.016;7.802;2023-01-24T09:08:55;6.10;99.90
7325;DHT22;3703;48.016;7.802;2023-01-24T09:11:43;6.20;99.90
7325;DHT22;3703;48.016;7.802;2023-01-24T09:14:32;6.20;99.90
7325;DHT22;3703;48.016;7.802;2023-01-24T09:20:08;6.30;99.90
7325;DHT22;3703;48.016;7.802;2023-01-24T09:22:57;6.40;99.90
7325;DHT22;3703;48.016;7.802;2023-01-24T09:25:49;6.40;99.90
7325;DHT22;3703;48.016;7.802;2023-01-24T09:28:37;7.70;99.90
7325;DHT22;3703;48.016;7.802;2023-01-24T09:31:27;6.70;99.90
7325;DHT22;3703;48.016;7.802;2023-01-24T09:34:15;6.90;99.90
7325;DHT22;3703;48.016;7.802;2023-01-24T09:37:03;8.10;99.90
7325;DHT22;3703;48.016;7.802;2023-01-24T09:39:50;7.00;99.90
7325;DHT22;3703;48.016;7.802;2023-01-24T09:42:44;6.90;99.90
7325;DHT22;3703;48.016;7.802;2023-01-24T09:45:43;6.80;99.90
7325;DHT22;3703;48.016;7.802;2023-01-24T09:48:38;6.90;99.90
7325;DHT22;3703;48.016;7.802;2023-01-24T09:51:29;8.10;99.90
7325;DHT22;3703;48.016;7.802;2023-01-24T09:54:25;6.80;99.90
7325;DHT22;3703;48.016;7.802;2023-01-24T09:57:22;6.80;99.90
7325;DHT22;3703;48.016;7.802;2023-01-24T10:00:17;6.50;99.90
7325;DHT22;3703;48.016;7.802;2023-01-24T10:03:14;6.80;99.90
7325;DHT22;3703;48.016;7.802;2023-01-24T10:06:12;6.80;99.90
7325;DHT22;3703;48.016;7.802;2023-01-24T10:09:07;6.60;99.90
7325;DHT22;3703;48.016;7.802;2023-01-24T10:12:03;6.30;99.90
7325;DHT22;3703;48.016;7.802;2023-01-24T10:15:02;6.20;99.90
7325;DHT22;3703;48.016;7.802;2023-01-24T10:18:05;6.50;99.90
7325;DHT22;3703;48.016;7.802;2023-01-24T10:21:13;6.40;99.90
7325;DHT22;3703;48.016;7.802;2023-01-24T10:24:08;6.10;99.90
7325;DHT22;3703;48.016;7.802;2023-01-24T10:26:58;6.10;99.90
7325;DHT22;3703;48.016;7.802;2023-01-24T10:29:47;6.20;99.90
7325;DHT22;3703;48.016;7.802;2023-01-24T10:32:42;6.40;99.90
7325;DHT22;3703;48.016;7.802;2023-01-24T10:35:35;6.40;99.90
7325;DHT22;3703;48.016;7.802;2023-01-24T10:38:27;6.30;99.90
7325;DHT22;3703;48.016;7.802;2023-01-24T10:41:18;6.10;99.90
7325;DHT22;3703;48.016;7.802;2023-01-24T10:44:12;6.40;99.90
7325;DHT22;3703;48.016;7.802;2023-01-24T10:47:39;6.40;99.90
7325;DHT22;3703;48.016;7.802;2023-01-24T10:50:34;6.60;99.90
7325;DHT22;3703;48.016;7.802;2023-01-24T10:53:23;6.60;99.90
7325;DHT22;3703;48.016;7.802;2023-01-24T10:56:15;6.60;99.90
7325;DHT22;3703;48.016;7.802;2023-01-24T10:59:05;7.40;99.90
7325;DHT22;3703;48.016;7.802;2023-01-24T11:01:59;6.80;99.90
7325;DHT22;3703;48.016;7.802;2023-01-24T11:04:46;6.70;99.90
7325;DHT22;3703;48.016;7.802;2023-01-24T11:07:35;6.80;99.90
7325;DHT22;3703;48.016;7.802;2023-01-24T11:10:26;7.00;99.90
7325;DHT22;3703;48.016;7.802;2023-01-24T11:13:25;7.10;99.90
7325;DHT22;3703;48.016;7.802;2023-01-24T11:16:21;7.10;99.90
7325;DHT22;3703;48.016;7.802;2023-01-24T11:19:24;6.90;99.90
7325;DHT22;3703;48.016;7.802;2023-01-24T11:22:21;6.80;99.90
7325;DHT22;3703;48.016;7.802;2023-01-24T11:25:14;6.80;99.90
7325;DHT22;3703;48.016;7.802;2023-01-24T11:28:02;6.90;99.90
7325;DHT22;3703;48.016;7.802;2023-01-24T11:30:52;6.80;99.90
7325;DHT22;3703;48.016;7.802;2023-01-24T11:34:11;6.90;99.90
7325;DHT22;3703;48.016;7.802;2023-01-24T11:37:16;6.80;99.90
7325;DHT22;3703;48.016;7.802;2023-01-24T11:40:28;6.80;99.90
7325;DHT22;3703;48.016;7.802;2023-01-24T11:43:31;7.00;99.90
7325;DHT22;3703;48.016;7.802;2023-01-24T11:46:39;6.90;99.90
7325;DHT22;3703;48.016;7.802;2023-01-24T11:49:47;7.00;99.90
7325;DHT22;3703;48.016;7.802;2023-01-24T11:52:50;7.50;99.90
7325;DHT22;3703;48.016;7.802;2023-01-24T11:55:53;7.50;99.90
7325;DHT22;3703;48.016;7.802;2023-01-24T11:59:13;7.70;99.90
7325;DHT22;3703;48.016;7.802;2023-01-24T12:02:34;7.80;99.90
7325;DHT22;3703;48.016;7.802;2023-01-24T12:05:39;7.70;99.90
7325;DHT22;3703;48.016;7.802;2023-01-24T12:08:48;7.80;99.90
7325;DHT22;3703;48.016;7.802;2023-01-24T12:11:46;7.80;99.90
7325;DHT22;3703;48.016;7.802;2023-01-24T12:18:19;7.70;99.90
7325;DHT22;3703;48.016;7.802;2023-01-24T12:21:14;7.70;99.90
7325;DHT22;3703;48.016;7.802;2023-01-24T12:24:04;7.60;99.90
7325;DHT22;3703;48.016;7.802;2023-01-24T12:27:00;7.50;99.90
7325;DHT22;3703;48.016;7.802;2023-01-24T12:29:55;7.50;99.90
7325;DHT22;3703;48.016;7.802;2023-01-24T12:32:48;7.40;99.90
7325;DHT22;3703;48.016;7.802;2023-01-24T12:35:41;7.70;99.90
7325;DHT22;3703;48.016;7.802;2023-01-24T12:38:35;7.90;99.90
7325;DHT22;3703;48.016;7.802;2023-01-24T12:41:30;8.00;99.90
7325;DHT22;3703;48.016;7.802;2023-01-24T12:44:25;8.00;99.90
7325;DHT22;3703;48.016;7.802;2023-01-24T12:47:25;8.10;99.90
7325;DHT22;3703;48.016;7.802;2023-01-24T12:50:23;8.60;99.90
7325;DHT22;3703;48.016;7.802;2023-01-24T12:53:21;8.10;99.90
7325;DHT22;3703;48.016;7.802;2023-01-24T12:56:17;8.20;99.90
7325;DHT22;3703;48.016;7.802;2023-01-24T12:59:08;8.10;99.90
7325;DHT22;3703;48.016;7.802;2023-01-24T13:02:36;7.70;99.90
7325;DHT22;3703;48.016;7.802;2023-01-24T13:05:39;7.90;99.90
7325;DHT22;3703;48.016;7.802;2023-01-24T13:08:42;8.10;99.90
7325;DHT22;3703;48.016;7.802;2023-01-24T13:11:39;8.20;99.90
7325;DHT22;3703;48.016;7.802;2023-01-24T13:14:33;8.30;99.90
7325;DHT22;3703;48.016;7.802;2023-01-24T13:17:38;9.60;99.90
7325;DHT22;3703;48.016;7.802;2023-01-24T13:21:05;8.00;99.90
7325;DHT22;3703;48.016;7.802;2023-01-24T13:24:10;8.10;99.90
7325;DHT22;3703;48.016;7.802;2023-01-24T13:27:29;8.20;99.90
7325;DHT22;3703;48.016;7.802;2023-01-24T13:30:31;8.40;99.90
7325;DHT22;3703;48.016;7.802;2023-01-24T13:33:26;8.20;99.90
7325;DHT22;3703;48.016;7.802;2023-01-24T13:36:19;8.20;99.90
7325;DHT22;3703;48.016;7.802;2023-01-24T13:39:29;9.30;99.90
7325;DHT22;3703;48.016;7.802;2023-01-24T13:42:20;9.70;99.90
7325;DHT22;3703;48.016;7.802;2023-01-24T13:45:48;8.40;99.90
7325;DHT22;3703;48.016;7.802;2023-01-24T13:48:53;8.20;99.90
7325;DHT22;3703;48.016;7.802;2023-01-24T13:51:45;8.80;99.90
7325;DHT22;3703;48.016;7.802;2023-01-24T13:54:37;9.40;99.90
7325;DHT22;3703;48.016;7.802;2023-01-24T13:57:26;8.00;99.90
7325;DHT22;3703;48.016;7.802;2023-01-24T14:00:17;8.00;99.90
7325;DHT22;3703;48.016;7.802;2023-01-24T14:03:15;8.00;99.90
7325;DHT22;3703;48.016;7.802;2023-01-24T14:06:11;7.80;99.90
7325;DHT22;3703;48.016;7.802;2023-01-24T14:09:11;8.00;99.90
7325;DHT22;3703;48.016;7.802;2023-01-24T14:12:03;7.80;99.90
7325;DHT22;3703;48.016;7.802;2023-01-24T14:15:05;7.70;99.90
7325;DHT22;3703;48.016;7.802;2023-01-24T14:18:41;7.80;99.90
7325;DHT22;3703;48.016;7.802;2023-01-24T14:21:33;7.60;99.90
7325;DHT22;3703;48.016;7.802;2023-01-24T14:24:33;7.80;99.90
7325;DHT22;3703;48.016;7.802;2023-01-24T14:27:27;8.70;99.90
7325;DHT22;3703;48.016;7.802;2023-01-24T14:30:30;7.80;99.90
7325;DHT22;3703;48.016;7.802;2023-01-24T14:33:29;7.70;99.90
7325;DHT22;3703;48.016;7.802;2023-01-24T14:36:24;7.50;99.90
7325;DHT22;3703;48.016;7.802;2023-01-24T14:39:20;7.50;99.90
7325;DHT22;3703;48.016;7.802;2023-01-24T14:42:12;7.40;99.90
7325;DHT22;3703;48.016;7.802;2023-01-24T14:45:02;7.30;99.90
7325;DHT22;3703;48.016;7.802;2023-01-24T14:47:51;7.40;99.90
7325;DHT22;3703;48.016;7.802;2023-01-24T14:50:38;7.50;99.90
7325;DHT22;3703;48.016;7.802;2023-01-24T14:53:29;7.40;99.90
7325;DHT22;3703;48.016;7.802;2023-01-24T14:56:18;7.40;99.90
7325;DHT22;3703;48.016;7.802;2023-01-24T14:59:16;7.20;99.90
7325;DHT22;3703;48.016;7.802;2023-01-24T15:02:16;7.40;99.90
7325;DHT22;3703;48.016;7.802;2023-01-24T15:05:21;7.20;99.90
7325;DHT22;3703;48.016;7.802;2023-01-24T15:08:14;7.20;99.90
7325;DHT22;3703;48.016;7.802;2023-01-24T15:11:04;7.20;99.90
7325;DHT22;3703;48.016;7.802;2023-01-24T15:13:56;7.20;99.90
7325;DHT22;3703;48.016;7.802;2023-01-24T15:16:47;7.40;99.90
7325;DHT22;3703;48.016;7.802;2023-01-24T15:19:39;7.10;99.90
7325;DHT22;3703;48.016;7.802;2023-01-24T15:22:28;7.20;99.90
7325;DHT22;3703;48.016;7.802;2023-01-24T15:25:20;7.20;99.90
7325;DHT22;3703;48.016;7.802;2023-01-24T15:28:10;7.30;99.90
7325;DHT22;3703;48.016;7.802;2023-01-24T15:31:16;7.20;99.90
7325;DHT22;3703;48.016;7.802;2023-01-24T15:34:18;6.90;99.90
7325;DHT22;3703;48.016;7.802;2023-01-24T15:37:12;7.10;99.90
7325;DHT22;3703;48.016;7.802;2023-01-24T15:40:00;7.20;99.90
7325;DHT22;3703;48.016;7.802;2023-01-24T15:42:48;7.30;99.90
7325;DHT22;3703;48.016;7.802;2023-01-24T15:45:55;7.20;99.90
7325;DHT22;3703;48.016;7.802;2023-01-24T15:49:05;7.20;99.90
7325;DHT22;3703;48.016;7.802;2023-01-24T15:52:17;7.20;99.90
7325;DHT22;3703;48.016;7.802;2023-01-24T15:55:07;7.20;99.90
7325;DHT22;3703;48.016;7.802;2023-01-24T15:57:54;7.20;99.90
7325;DHT22;3703;48.016;7.802;2023-01-24T16:00:50;7.30;99.90
7325;DHT22;3703;48.016;7.802;2023-01-24T16:03:38;7.30;99.90
7325;DHT22;3703;48.016;7.802;2023-01-24T16:06:26;7.30;99.90
7325;DHT22;3703;48.016;7.802;2023-01-24T16:09:15;7.20;99.90
7325;DHT22;3703;48.016;7.802;2023-01-24T16:12:03;7.40;99.90
7325;DHT22;3703;48.016;7.802;2023-01-24T16:14:52;7.10;99.90
7325;DHT22;3703;48.016;7.802;2023-01-24T16:17:41;6.90;99.90
7325;DHT22;3703;48.016;7.802;2023-01-24T16:20:29;6.80;99.90
7325;DHT22;3703;48.016;7.802;2023-01-24T16:23:16;6.80;99.90
7325;DHT22;3703;48.016;7.802;2023-01-24T16:26:11;8.30;99.90
7325;DHT22;3703;48.016;7.802;2023-01-24T16:29:11;7.00;99.90
7325;DHT22;3703;48.016;7.802;2023-01-24T16:34:48;6.70;99.90
7325;DHT22;3703;48.016;7.802;2023-01-24T16:37:36;6.90;99.90
7325;DHT22;3703;48.016;7.802;2023-01-24T16:40:23;7.00;99.90
7325;DHT22;3703;48.016;7.802;2023-01-24T16:43:17;7.00;99.90
7325;DHT22;3703;48.016;7.802;2023-01-24T16:46:16;7.00;99.90
7325;DHT22;3703;48.016;7.802;2023-01-24T16:49:04;7.50;99.90
7325;DHT22;3703;48.016;7.802;2023-01-24T16:51:52;7.10;99.90
7325;DHT22;3703;48.016;7.802;2023-01-24T16:54:39;8.10;99.90
7325;DHT22;3703;48.016;7.802;2023-01-24T16:57:26;8.20;99.90
7325;DHT22;3703;48.016;7.802;2023-01-24T17:00:16;6.80;99.90
7325;DHT22;3703;48.016;7.802;2023-01-24T17:03:04;6.80;99.90
7325;DHT22;3703;48.016;7.802;2023-01-24T17:05:52;6.60;99.90
7325;DHT22;3703;48.016;7.802;2023-01-24T17:08:39;6.80;99.90
7325;DHT22;3703;48.016;7.802;2023-01-24T17:11:27;6.80;99.90
7325;DHT22;3703;48.016;7.802;2023-01-24T17:14:14;6.90;99.90
7325;DHT22;3703;48.016;7.802;2023-01-24T17:17:03;7.00;99.90
7325;DHT22;3703;48.016;7.802;2023-01-24T17:19:50;6.90;99.90
7325;DHT22;3703;48.016;7.802;2023-01-24T17:22:38;6.80;99.90
7325;DHT22;3703;48.016;7.802;2023-01-24T17:25:27;6.80;99.90
7325;DHT22;3703;48.016;7.802;2023-01-24T17:28:15;6.80;99.90
7325;DHT22;3703;48.016;7.802;2023-01-24T17:31:07;6.80;99.90
7325;DHT22;3703;48.016;7.802;2023-01-24T17:33:56;6.70;99.90
7325;DHT22;3703;48.016;7.802;2023-01-24T17:39:32;6.60;99.90
7325;DHT22;3703;48.016;7.802;2023-01-24T17:42:20;6.60;99.90
7325;DHT22;3703;48.016;7.802;2023-01-24T17:45:08;6.60;99.90
7325;DHT22;3703;48.016;7.802;2023-01-24T17:47:56;6.50;99.90
7325;DHT22;3703;48.016;7.802;2023-01-24T17:50:45;6.60;99.90
7325;DHT22;3703;48.016;7.802;2023-01-24T17:56:22;6.50;99.90
7325;DHT22;3703;48.016;7.802;2023-01-24T17:59:10;6.60;99.90
7325;DHT22;3703;48.016;7.802;2023-01-24T18:07:34;6.50;99.90
7325;DHT22;3703;48.016;7.802;2023-01-24T18:10:22;6.50;99.90
7325;DHT22;3703;48.016;7.802;2023-01-24T18:13:09;7.00;99.90
7325;DHT22;3703;48.016;7.802;2023-01-24T18:16:01;6.70;99.90
7325;DHT22;3703;48.016;7.802;2023-01-24T18:18:49;6.50;99.90
7325;DHT22;3703;48.016;7.802;2023-01-24T18:24:25;6.70;99.90
7325;DHT22;3703;48.016;7.802;2023-01-24T18:27:13;6.60;99.90
7325;DHT22;3703;48.016;7.802;2023-01-24T18:32:48;6.40;99.90
7325;DHT22;3703;48.016;7.802;2023-01-24T18:35:39;6.50;99.90
7325;DHT22;3703;48.016;7.802;2023-01-24T18:38:26;6.50;99.90
7325;DHT22;3703;48.016;7.802;2023-01-24T18:41:16;6.60;99.90
7325;DHT22;3703;48.016;7.802;2023-01-24T18:44:03;7.10;99.90
7325;DHT22;3703;48.016;7.802;2023-01-24T18:49:39;6.50;99.90
7325;DHT22;3703;48.016;7.802;2023-01-24T18:52:26;6.50;99.90
7325;DHT22;3703;48.016;7.802;2023-01-24T18:55:14;6.80;99.90
7325;DHT22;3703;48.016;7.802;2023-01-24T18:58:03;6.30;99.90
7325;DHT22;3703;48.016;7.802;2023-01-24T19:00:50;6.30;99.90
7325;DHT22;3703;48.016;7.802;2023-01-24T19:03:38;6.30;99.90
7325;DHT22;3703;48.016;7.802;2023-01-24T19:06:28;7.20;99.90
7325;DHT22;3703;48.016;7.802;2023-01-24T19:14:56;6.30;99.90
7325;DHT22;3703;48.016;7.802;2023-01-24T19:17:48;6.40;99.90
7325;DHT22;3703;48.016;7.802;2023-01-24T19:23:24;6.40;99.90
7325;DHT22;3703;48.016;7.802;2023-01-24T19:26:13;6.40;99.90
7325;DHT22;3703;48.016;7.802;2023-01-24T19:29:02;8.10;99.90
7325;DHT22;3703;48.016;7.802;2023-01-24T19:31:51;8.30;99.90
7325;DHT22;3703;48.016;7.802;2023-01-24T19:34:39;6.40;99.90
7325;DHT22;3703;48.016;7.802;2023-01-24T19:37:28;6.30;99.90
7325;DHT22;3703;48.016;7.802;2023-01-24T19:40:16;6.30;99.90
7325;DHT22;3703;48.016;7.802;2023-01-24T19:48:41;6.30;99.90
7325;DHT22;3703;48.016;7.802;2023-01-24T19:51:28;6.50;99.90
7325;DHT22;3703;48.016;7.802;2023-01-24T19:54:16;6.30;99.90
7325;DHT22;3703;48.016;7.802;2023-01-24T20:02:43;6.50;99.90
7325;DHT22;3703;48.016;7.802;2023-01-24T20:05:36;5.90;99.90
7325;DHT22;3703;48.016;7.802;2023-01-24T20:11:12;6.30;99.90
7325;DHT22;3703;48.016;7.802;2023-01-24T20:22:25;6.20;99.90
7325;DHT22;3703;48.016;7.802;2023-01-24T20:39:14;5.90;99.90
7325;DHT22;3703;48.016;7.802;2023-01-24T20:56:04;6.20;99.90
7325;DHT22;3703;48.016;7.802;2023-01-24T20:58:54;6.30;99.90
7325;DHT22;3703;48.016;7.802;2023-01-24T21:10:07;6.20;99.90
7325;DHT22;3703;48.016;7.802;2023-01-24T21:12:57;6.20;99.90
7325;DHT22;3703;48.016;7.802;2023-01-24T21:21:22;6.10;99.90
7325;DHT22;3703;48.016;7.802;2023-01-24T21:24:13;6.00;99.90
7325;DHT22;3703;48.016;7.802;2023-01-24T21:27:02;6.00;99.90
7325;DHT22;3703;48.016;7.802;2023-01-24T21:29:51;6.00;99.90
7325;DHT22;3703;48.016;7.802;2023-01-24T21:41:03;6.20;99.90
7325;DHT22;3703;48.016;7.802;2023-01-24T21:46:59;6.20;99.90
7325;DHT22;3703;48.016;7.802;2023-01-24T21:58:10;6.30;99.90
7325;DHT22;3703;48.016;7.802;2023-01-24T22:03:46;6.70;99.90
7325;DHT22;3703;48.016;7.802;2023-01-24T22:06:33;6.20;99.90
7325;DHT22;3703;48.016;7.802;2023-01-24T22:09:21;6.20;99.90
7325;DHT22;3703;48.016;7.802;2023-01-24T22:12:09;6.40;99.90
7325;DHT22;3703;48.016;7.802;2023-01-24T22:14:58;6.20;99.90
7325;DHT22;3703;48.016;7.802;2023-01-24T22:17:46;6.00;99.90
7325;DHT22;3703;48.016;7.802;2023-01-24T22:20:36;5.90;99.90
7325;DHT22;3703;48.016;7.802;2023-01-24T22:23:26;6.30;99.90
7325;DHT22;3703;48.016;7.802;2023-01-24T22:26:16;6.30;99.90
7325;DHT22;3703;48.016;7.802;2023-01-24T22:29:07;6.30;99.90
7325;DHT22;3703;48.016;7.802;2023-01-24T22:31:58;6.20;99.90
7325;DHT22;3703;48.016;7.802;2023-01-24T22:34:46;5.20;99.90
7325;DHT22;3703;48.016;7.802;2023-01-24T22:37:37;6.20;99.90
7325;DHT22;3703;48.016;7.802;2023-01-24T22:40:27;6.30;99.90
7325;DHT22;3703;48.016;7.802;2023-01-24T22:43:15;5.90;99.90
7325;DHT22;3703;48.016;7.802;2023-01-24T22:46:02;5.90;99.90
7325;DHT22;3703;48.016;7.802;2023-01-24T22:48:50;5.80;99.90
7325;DHT22;3703;48.016;7.802;2023-01-24T22:51:37;5.60;99.90
7325;DHT22;3703;48.016;7.802;2023-01-24T22:54:26;6.00;99.90
7325;DHT22;3703;48.016;7.802;2023-01-24T22:57:14;6.20;99.90
7325;DHT22;3703;48.016;7.802;2023-01-24T23:00:02;6.20;99.90
7325;DHT22;3703;48.016;7.802;2023-01-24T23:02:51;6.00;99.90
7325;DHT22;3703;48.016;7.802;2023-01-24T23:05:39;6.30;99.90
7325;DHT22;3703;48.016;7.802;2023-01-24T23:08:26;6.00;99.90
7325;DHT22;3703;48.016;7.802;2023-01-24T23:11:17;6.50;99.90
7325;DHT22;3703;48.016;7.802;2023-01-24T23:14:08;6.40;99.90
7325;DHT22;3703;48.016;7.802;2023-01-24T23:17:14;5.90;99.90
7325;DHT22;3703;48.016;7.802;2023-01-24T23:20:01;6.00;99.90
7325;DHT22;3703;48.016;7.802;2023-01-24T23:23:07;5.70;99.90
7325;DHT22;3703;48.016;7.802;2023-01-24T23:25:54;6.10;99.90
7325;DHT22;3703;48.016;7.802;2023-01-24T23:28:45;5.90;99.90
7325;DHT22;3703;48.016;7.802;2023-01-24T23:34:34;5.80;99.90
7325;DHT22;3703;48.016;7.802;2023-01-24T23:40:13;5.80;99.90
7325;DHT22;3703;48.016;7.802;2023-01-24T23:45:51;5.90;99.90
7325;DHT22;3703;48.016;7.802;2023-01-24T23:57:02;6.00;99.90
